createdAt,value
2017-09-19T00:00:38.277Z,21.39
2017-09-19T00:01:47.615Z,21.4
2017-09-19T00:02:56.630Z,21.45
2017-09-19T00:04:05.653Z,21.39
2017-09-19T00:05:15.638Z,21.39
2017-09-19T00:06:24.338Z,21.4
2017-09-19T00:07:33.032Z,21.42
2017-09-19T00:08:42.059Z,21.37
2017-09-19T00:09:51.394Z,21.43
2017-09-19T00:11:00.737Z,21.4
2017-09-19T00:12:10.392Z,21.39
2017-09-19T00:13:19.415Z,21.4
2017-09-19T00:14:28.427Z,21.4
2017-09-19T00:15:37.124Z,21.42
2017-09-19T00:16:45.822Z,21.42
2017-09-19T00:17:55.159Z,21.37
2017-09-19T00:19:04.821Z,21.4
2017-09-19T00:20:13.839Z,21.39
2017-09-19T00:21:22.538Z,21.35
2017-09-19T00:22:31.566Z,21.39
2017-09-19T00:23:40.898Z,21.37
2017-09-19T00:24:50.235Z,21.36
2017-09-19T00:25:59.573Z,21.33
2017-09-19T00:27:08.914Z,21.39
2017-09-19T00:28:17.928Z,21.37
2017-09-19T00:29:27.263Z,21.35
2017-09-19T00:30:36.598Z,21.33
2017-09-19T00:31:45.943Z,21.36
2017-09-19T00:32:55.289Z,21.32
2017-09-19T00:34:04.308Z,21.35
2017-09-19T00:35:13.649Z,21.33
2017-09-19T00:36:22.994Z,21.37
2017-09-19T00:37:32.013Z,21.36
2017-09-19T00:38:41.348Z,21.35
2017-09-19T00:39:50.682Z,21.36
2017-09-19T00:40:59.697Z,21.32
2017-09-19T00:42:09.374Z,21.35
2017-09-19T00:43:18.712Z,21.36
2017-09-19T00:44:28.050Z,21.3
2017-09-19T00:45:36.750Z,21.33
2017-09-19T00:46:46.406Z,21.4
2017-09-19T00:47:56.059Z,21.3
2017-09-19T00:49:05.398Z,21.29
2017-09-19T00:50:14.735Z,21.37
2017-09-19T00:51:23.430Z,21.37
2017-09-19T00:52:32.129Z,21.27
2017-09-19T00:53:41.792Z,21.35
2017-09-19T00:54:51.768Z,21.3
2017-09-19T00:56:01.108Z,21.27
2017-09-19T00:57:10.122Z,21.3
2017-09-19T00:58:19.138Z,21.32
2017-09-19T00:59:28.473Z,21.32
2017-09-19T01:00:37.168Z,21.3
2017-09-19T01:01:46.822Z,21.32
2017-09-19T01:02:55.836Z,21.33
2017-09-19T01:04:05.176Z,21.29
2017-09-19T01:05:14.514Z,21.24
2017-09-19T01:06:23.530Z,21.36
2017-09-19T01:07:32.548Z,21.32
2017-09-19T01:08:41.887Z,21.25
2017-09-19T01:09:50.904Z,21.32
2017-09-19T01:11:00.243Z,21.24
2017-09-19T01:12:09.582Z,21.24
2017-09-19T01:13:18.914Z,21.22
2017-09-19T01:14:27.930Z,21.25
2017-09-19T01:15:37.265Z,21.24
2017-09-19T01:16:45.964Z,21.21
2017-09-19T01:17:54.663Z,21.25
2017-09-19T01:19:04.321Z,21.24
2017-09-19T01:20:13.340Z,21.33
2017-09-19T01:21:22.359Z,21.32
2017-09-19T01:22:31.694Z,21.22
2017-09-19T01:23:41.026Z,21.21
2017-09-19T01:24:50.047Z,21.25
2017-09-19T01:25:59.380Z,21.25
2017-09-19T01:27:08.399Z,21.21
2017-09-19T01:28:18.383Z,21.24
2017-09-19T01:29:27.716Z,21.27
2017-09-19T01:30:36.731Z,21.25
2017-09-19T01:31:45.749Z,21.3
2017-09-19T01:32:55.095Z,21.27
2017-09-19T01:34:04.754Z,21.25
2017-09-19T01:35:13.769Z,21.21
2017-09-19T01:36:23.110Z,21.32
2017-09-19T01:37:32.130Z,21.21
2017-09-19T01:38:41.489Z,21.24
2017-09-19T01:39:51.145Z,21.21
2017-09-19T01:40:59.842Z,21.22
2017-09-19T01:42:08.857Z,21.22
2017-09-19T01:43:17.871Z,21.24
2017-09-19T01:44:27.203Z,21.24
2017-09-19T01:45:36.224Z,21.18
2017-09-19T01:46:45.877Z,21.22
2017-09-19T01:47:54.891Z,21.21
2017-09-19T01:49:03.908Z,21.22
2017-09-19T01:50:12.922Z,21.21
2017-09-19T01:51:21.618Z,21.22
2017-09-19T01:52:30.317Z,21.25
2017-09-19T01:53:39.652Z,21.21
2017-09-19T01:54:48.670Z,21.21
2017-09-19T01:55:58.332Z,21.25
2017-09-19T01:57:07.028Z,21.24
2017-09-19T01:58:16.693Z,21.22
2017-09-19T01:59:26.353Z,21.21
2017-09-19T02:00:35.052Z,21.22
2017-09-19T02:01:44.386Z,21.21
2017-09-19T02:02:53.401Z,21.17
2017-09-19T02:04:02.096Z,21.29
2017-09-19T02:05:10.794Z,21.18
2017-09-19T02:06:20.447Z,21.22
2017-09-19T02:07:29.778Z,21.2
2017-09-19T02:08:39.436Z,21.2
2017-09-19T02:09:48.774Z,21.17
2017-09-19T02:10:58.111Z,21.2
2017-09-19T02:12:07.445Z,21.18
2017-09-19T02:13:16.142Z,21.17
2017-09-19T02:14:25.479Z,21.2
2017-09-19T02:15:34.174Z,21.18
2017-09-19T02:16:43.193Z,21.17
2017-09-19T02:17:52.212Z,21.14
2017-09-19T02:19:00.909Z,21.22
2017-09-19T02:20:10.887Z,21.18
2017-09-19T02:21:20.223Z,21.2
2017-09-19T02:22:29.574Z,21.18
2017-09-19T02:23:38.272Z,21.18
2017-09-19T02:24:47.290Z,21.18
2017-09-19T02:25:56.621Z,21.2
2017-09-19T02:27:05.641Z,21.21
2017-09-19T02:28:14.977Z,21.21
2017-09-19T02:29:23.991Z,21.18
2017-09-19T02:30:33.326Z,21.12
2017-09-19T02:31:42.670Z,21.12
2017-09-19T02:32:51.687Z,21.2
2017-09-19T02:34:01.379Z,21.2
2017-09-19T02:35:10.411Z,21.11
2017-09-19T02:36:19.427Z,21.14
2017-09-19T02:37:28.764Z,21.2
2017-09-19T02:38:37.777Z,21.14
2017-09-19T02:39:47.122Z,21.12
2017-09-19T02:40:56.500Z,21.15
2017-09-19T02:42:05.515Z,21.06
2017-09-19T02:43:14.857Z,21.06
2017-09-19T02:44:23.553Z,21.15
2017-09-19T02:45:32.888Z,21.12
2017-09-19T02:46:42.547Z,21.12
2017-09-19T02:47:51.887Z,21.12
2017-09-19T02:49:01.223Z,21.06
2017-09-19T02:50:10.241Z,21.15
2017-09-19T02:51:19.577Z,21.15
2017-09-19T02:52:28.596Z,21.14
2017-09-19T02:53:37.621Z,21.15
2017-09-19T02:54:46.961Z,21.11
2017-09-19T02:55:55.983Z,21.11
2017-09-19T02:57:05.961Z,21.12
2017-09-19T02:58:14.978Z,21.09
2017-09-19T02:59:24.644Z,21.17
2017-09-19T03:00:33.341Z,21.17
2017-09-19T03:01:43.006Z,21.11
2017-09-19T03:02:52.343Z,21.12
2017-09-19T03:04:01.360Z,21.06
2017-09-19T03:05:10.698Z,21.14
2017-09-19T03:06:20.038Z,21.11
2017-09-19T03:07:29.056Z,21.12
2017-09-19T03:08:38.076Z,21.12
2017-09-19T03:09:47.408Z,21.15
2017-09-19T03:10:56.745Z,21.15
2017-09-19T03:12:05.767Z,21.11
2017-09-19T03:13:15.105Z,21.05
2017-09-19T03:14:24.130Z,21.07
2017-09-19T03:15:33.147Z,21.15
2017-09-19T03:16:41.841Z,21.14
2017-09-19T03:17:51.182Z,21.14
2017-09-19T03:19:00.518Z,21.09
2017-09-19T03:20:09.224Z,21.17
2017-09-19T03:21:18.878Z,21.2
2017-09-19T03:22:28.218Z,21.11
2017-09-19T03:23:37.233Z,21.14
2017-09-19T03:24:46.566Z,21.09
2017-09-19T03:25:56.226Z,21.11
2017-09-19T03:27:04.924Z,21.12
2017-09-19T03:28:14.585Z,21.17
2017-09-19T03:29:23.597Z,21.14
2017-09-19T03:30:32.619Z,21.14
2017-09-19T03:31:41.635Z,21.06
2017-09-19T03:32:50.652Z,21.09
2017-09-19T03:33:59.988Z,21.06
2017-09-19T03:35:09.322Z,21.05
2017-09-19T03:36:18.016Z,21.06
2017-09-19T03:37:26.713Z,21.12
2017-09-19T03:38:36.046Z,21.12
2017-09-19T03:39:45.384Z,21.06
2017-09-19T03:40:54.398Z,21.06
2017-09-19T03:42:03.739Z,21.11
2017-09-19T03:43:12.759Z,21.17
2017-09-19T03:44:22.737Z,21.09
2017-09-19T03:45:32.074Z,21.09
2017-09-19T03:46:40.774Z,21.06
2017-09-19T03:47:50.430Z,21.12
2017-09-19T03:48:59.446Z,21.07
2017-09-19T03:50:08.141Z,21.06
2017-09-19T03:51:17.158Z,21.02
2017-09-19T03:52:26.176Z,21.09
2017-09-19T03:53:35.510Z,21.07
2017-09-19T03:54:44.529Z,21.05
2017-09-19T03:55:53.554Z,20.95
2017-09-19T03:57:03.213Z,21.07
2017-09-19T03:58:12.231Z,21.05
2017-09-19T03:59:21.889Z,21.06
2017-09-19T04:00:31.224Z,21.05
2017-09-19T04:01:40.240Z,21.02
2017-09-19T04:02:49.257Z,21.06
2017-09-19T04:03:58.272Z,21.02
2017-09-19T04:05:06.972Z,21.06
2017-09-19T04:06:16.636Z,21.07
2017-09-19T04:07:26.618Z,21
2017-09-19T04:08:35.317Z,21.05
2017-09-19T04:09:44.972Z,21.02
2017-09-19T04:10:54.320Z,21.06
2017-09-19T04:12:03.658Z,21.05
2017-09-19T04:13:12.673Z,20.99
2017-09-19T04:14:21.696Z,21.06
2017-09-19T04:15:30.722Z,21.07
2017-09-19T04:16:39.740Z,21.05
2017-09-19T04:17:48.753Z,21.05
2017-09-19T04:18:57.767Z,21.03
2017-09-19T04:20:06.462Z,20.96
2017-09-19T04:21:15.798Z,21.06
2017-09-19T04:22:25.132Z,21.05
2017-09-19T04:23:34.468Z,21.03
2017-09-19T04:24:43.804Z,21.03
2017-09-19T04:25:53.461Z,21.06
2017-09-19T04:27:03.112Z,21.05
2017-09-19T04:28:12.130Z,21.03
2017-09-19T04:29:21.471Z,21.06
2017-09-19T04:30:30.811Z,21.06
2017-09-19T04:31:39.825Z,21.09
2017-09-19T04:32:49.803Z,21.06
2017-09-19T04:33:59.461Z,21.07
2017-09-19T04:35:08.798Z,21.07
2017-09-19T04:36:17.817Z,21.12
2017-09-19T04:37:27.152Z,21.12
2017-09-19T04:38:35.850Z,21.07
2017-09-19T04:39:45.183Z,21.09
2017-09-19T04:40:54.517Z,21.09
2017-09-19T04:42:03.859Z,21.06
2017-09-19T04:43:13.516Z,21.17
2017-09-19T04:44:22.856Z,21.14
2017-09-19T04:45:31.551Z,21.11
2017-09-19T04:46:40.569Z,21.12
2017-09-19T04:47:49.903Z,21.11
2017-09-19T04:48:59.557Z,21.11
2017-09-19T04:50:08.255Z,21.17
2017-09-19T04:51:17.272Z,21.11
2017-09-19T04:52:26.613Z,21.12
2017-09-19T04:53:35.627Z,21.14
2017-09-19T04:54:44.322Z,21.18
2017-09-19T04:55:53.346Z,21.09
2017-09-19T04:57:03.002Z,21.15
2017-09-19T04:58:11.697Z,21.14
2017-09-19T04:59:20.711Z,21.17
2017-09-19T05:00:29.727Z,21.18
2017-09-19T05:01:39.383Z,21.17
2017-09-19T05:02:48.083Z,21.21
2017-09-19T05:03:57.096Z,21.15
2017-09-19T05:05:05.790Z,21.2
2017-09-19T05:06:14.813Z,21.2
2017-09-19T05:07:24.150Z,21.27
2017-09-19T05:08:32.846Z,21.22
2017-09-19T05:09:41.863Z,21.22
2017-09-19T05:10:50.880Z,21.18
2017-09-19T05:11:59.896Z,21.24
2017-09-19T05:13:08.594Z,21.21
2017-09-19T05:14:17.932Z,21.21
2017-09-19T05:15:27.922Z,21.22
2017-09-19T05:16:36.939Z,21.22
2017-09-19T05:17:45.956Z,21.21
2017-09-19T05:18:54.973Z,21.21
2017-09-19T05:20:03.991Z,21.21
2017-09-19T05:21:13.970Z,21.22
2017-09-19T05:22:22.987Z,21.27
2017-09-19T05:23:32.320Z,21.27
2017-09-19T05:24:41.655Z,21.29
2017-09-19T05:25:50.391Z,21.29
2017-09-19T05:26:59.411Z,21.24
2017-09-19T05:28:08.752Z,21.27
2017-09-19T05:29:18.088Z,21.18
2017-09-19T05:30:26.785Z,21.22
2017-09-19T05:31:35.801Z,21.22
2017-09-19T05:32:45.136Z,21.24
2017-09-19T05:33:54.152Z,21.33
2017-09-19T05:35:03.489Z,21.25
2017-09-19T05:36:12.226Z,21.27
2017-09-19T05:37:21.844Z,21.3
2017-09-19T05:38:31.182Z,21.3
2017-09-19T05:39:40.529Z,21.3
2017-09-19T05:40:49.225Z,21.29
2017-09-19T05:41:58.882Z,21.36
2017-09-19T05:43:07.901Z,21.4
2017-09-19T05:44:17.237Z,21.35
2017-09-19T05:45:26.579Z,21.36
2017-09-19T05:46:35.926Z,21.27
2017-09-19T05:47:45.591Z,21.37
2017-09-19T05:48:54.606Z,21.35
2017-09-19T05:50:03.944Z,21.32
2017-09-19T05:51:12.641Z,21.36
2017-09-19T05:52:21.660Z,21.36
2017-09-19T05:53:30.673Z,21.4
2017-09-19T05:54:40.006Z,21.43
2017-09-19T05:55:49.345Z,21.37
2017-09-19T05:56:58.681Z,21.43
2017-09-19T05:58:07.375Z,21.42
2017-09-19T05:59:16.395Z,21.42
2017-09-19T06:00:25.412Z,21.42
2017-09-19T06:01:34.745Z,21.4
2017-09-19T06:02:43.760Z,21.48
2017-09-19T06:03:52.781Z,21.4
2017-09-19T06:05:02.432Z,21.45
2017-09-19T06:06:11.768Z,21.43
2017-09-19T06:07:20.782Z,21.4
2017-09-19T06:08:30.114Z,21.42
2017-09-19T06:09:39.770Z,21.45
2017-09-19T06:10:49.102Z,21.39
2017-09-19T06:11:58.121Z,21.45
2017-09-19T06:13:07.453Z,21.45
2017-09-19T06:14:16.785Z,21.42
2017-09-19T06:15:25.798Z,21.4
2017-09-19T06:16:34.815Z,21.45
2017-09-19T06:17:44.471Z,21.4
2017-09-19T06:18:53.804Z,21.51
2017-09-19T06:20:03.139Z,21.5
2017-09-19T06:21:12.477Z,21.51
2017-09-19T06:22:21.171Z,21.46
2017-09-19T06:23:29.869Z,21.55
2017-09-19T06:24:40.163Z,21.51
2017-09-19T06:25:49.179Z,21.48
2017-09-19T06:26:58.844Z,21.5
2017-09-19T06:28:07.860Z,21.54
2017-09-19T06:29:17.198Z,21.57
2017-09-19T06:30:26.212Z,21.55
2017-09-19T06:31:35.263Z,21.52
2017-09-19T06:32:43.961Z,21.54
2017-09-19T06:33:52.654Z,21.52
2017-09-19T06:35:01.349Z,21.55
2017-09-19T06:36:10.043Z,21.57
2017-09-19T06:37:19.056Z,21.62
2017-09-19T06:38:28.070Z,21.58
2017-09-19T06:39:37.409Z,21.57
2017-09-19T06:40:46.435Z,21.58
2017-09-19T06:41:55.462Z,21.6
2017-09-19T06:43:04.800Z,21.62
2017-09-19T06:44:13.816Z,21.61
2017-09-19T06:45:22.834Z,21.62
2017-09-19T06:46:32.168Z,21.66
2017-09-19T06:47:42.146Z,21.64
2017-09-19T06:48:50.861Z,21.55
2017-09-19T06:49:59.538Z,21.6
2017-09-19T06:51:08.870Z,21.66
2017-09-19T06:52:18.204Z,21.61
2017-09-19T06:53:27.219Z,21.72
2017-09-19T06:54:35.914Z,21.61
2017-09-19T06:55:45.250Z,21.69
2017-09-19T06:56:54.584Z,21.73
2017-09-19T06:58:03.279Z,21.64
2017-09-19T06:59:12.298Z,21.67
2017-09-19T07:00:21.318Z,21.67
2017-09-19T07:01:30.335Z,21.66
2017-09-19T07:02:39.676Z,21.72
2017-09-19T07:03:48.690Z,21.69
2017-09-19T07:04:57.383Z,21.69
2017-09-19T07:06:06.397Z,21.73
2017-09-19T07:07:15.733Z,21.72
2017-09-19T07:08:24.428Z,21.73
2017-09-19T07:09:33.441Z,21.69
2017-09-19T07:10:42.457Z,21.72
2017-09-19T07:11:51.478Z,21.7
2017-09-19T07:13:01.134Z,21.76
2017-09-19T07:14:10.467Z,21.73
2017-09-19T07:15:19.487Z,21.72
2017-09-19T07:16:28.183Z,21.73
2017-09-19T07:17:36.878Z,21.72
2017-09-19T07:18:46.209Z,21.72
2017-09-19T07:19:55.222Z,21.72
2017-09-19T07:21:03.919Z,21.75
2017-09-19T07:22:13.259Z,21.66
2017-09-19T07:23:22.594Z,21.72
2017-09-19T07:24:31.614Z,21.75
2017-09-19T07:25:40.948Z,21.72
2017-09-19T07:26:50.287Z,21.7
2017-09-19T07:27:59.306Z,21.72
2017-09-19T07:29:08.964Z,21.73
2017-09-19T07:30:17.985Z,21.79
2017-09-19T07:31:27.322Z,21.72
2017-09-19T07:32:36.342Z,21.7
2017-09-19T07:33:45.362Z,21.76
2017-09-19T07:34:54.381Z,21.69
2017-09-19T07:36:03.401Z,21.8
2017-09-19T07:37:12.745Z,21.72
2017-09-19T07:38:21.763Z,21.8
2017-09-19T07:39:30.780Z,21.85
2017-09-19T07:40:40.434Z,21.8
2017-09-19T07:41:49.774Z,21.89
2017-09-19T07:42:58.795Z,21.83
2017-09-19T07:44:07.816Z,21.96
2017-09-19T07:45:16.513Z,21.89
2017-09-19T07:46:25.850Z,21.88
2017-09-19T07:47:35.189Z,21.92
2017-09-19T07:48:44.527Z,21.89
2017-09-19T07:49:53.546Z,21.95
2017-09-19T07:51:02.566Z,21.93
2017-09-19T07:52:11.587Z,21.89
2017-09-19T07:53:20.288Z,21.92
2017-09-19T07:54:29.627Z,21.92
2017-09-19T07:55:38.644Z,21.95
2017-09-19T07:56:47.350Z,21.99
2017-09-19T07:57:56.689Z,21.93
2017-09-19T07:59:06.342Z,21.95
2017-09-19T08:00:15.391Z,21.92
2017-09-19T08:01:24.410Z,21.96
2017-09-19T08:02:33.749Z,21.95
2017-09-19T08:03:43.408Z,21.96
2017-09-19T08:04:52.102Z,21.88
2017-09-19T08:06:01.116Z,21.95
2017-09-19T08:07:10.136Z,21.93
2017-09-19T08:08:20.113Z,21.95
2017-09-19T08:09:28.809Z,21.88
2017-09-19T08:10:37.825Z,21.93
2017-09-19T08:11:46.521Z,21.89
2017-09-19T08:12:55.855Z,21.92
2017-09-19T08:14:05.513Z,21.91
2017-09-19T08:15:15.167Z,21.95
2017-09-19T08:16:24.826Z,21.89
2017-09-19T08:17:34.194Z,21.83
2017-09-19T08:18:44.268Z,21.89
2017-09-19T08:19:53.975Z,21.85
2017-09-19T08:21:02.989Z,21.88
2017-09-19T08:22:12.003Z,21.89
2017-09-19T08:23:20.694Z,21.89
2017-09-19T08:24:29.713Z,21.91
2017-09-19T08:25:39.367Z,21.98
2017-09-19T08:26:49.031Z,21.88
2017-09-19T08:27:58.366Z,21.95
2017-09-19T08:29:07.382Z,21.89
2017-09-19T08:30:16.395Z,21.96
2017-09-19T08:31:25.410Z,21.92
2017-09-19T08:32:34.746Z,21.99
2017-09-19T08:33:43.441Z,21.95
2017-09-19T08:34:52.780Z,22
2017-09-19T08:36:01.477Z,22
2017-09-19T08:37:10.817Z,21.98
2017-09-19T08:38:19.835Z,21.95
2017-09-19T08:39:28.849Z,22.06
2017-09-19T08:40:37.865Z,22.08
2017-09-19T08:41:47.837Z,22.08
2017-09-19T08:42:57.172Z,22.13
2017-09-19T08:44:06.511Z,22.1
2017-09-19T08:45:15.205Z,22.08
2017-09-19T08:46:24.541Z,22.07
2017-09-19T08:47:33.877Z,22.08
2017-09-19T08:48:43.211Z,22.15
2017-09-19T08:49:51.907Z,22.17
2017-09-19T08:51:00.602Z,22.15
2017-09-19T08:52:09.299Z,22.26
2017-09-19T08:53:17.992Z,22.36
2017-09-19T08:54:26.687Z,22.35
2017-09-19T08:55:35.702Z,22.44
2017-09-19T08:56:44.716Z,22.5
2017-09-19T08:57:54.049Z,22.5
2017-09-19T08:59:03.063Z,22.53
2017-09-19T09:00:12.401Z,22.48
2017-09-19T09:01:21.737Z,22.54
2017-09-19T09:02:31.400Z,22.47
2017-09-19T09:03:40.095Z,22.51
2017-09-19T09:04:49.114Z,22.53
2017-09-19T09:05:58.128Z,22.51
2017-09-19T09:07:07.143Z,22.54
2017-09-19T09:08:16.802Z,22.54
2017-09-19T09:09:25.824Z,22.47
2017-09-19T09:10:35.493Z,22.54
2017-09-19T09:11:45.145Z,22.55
2017-09-19T09:12:53.844Z,22.5
2017-09-19T09:14:03.496Z,22.53
2017-09-19T09:15:12.513Z,22.48
2017-09-19T09:16:21.527Z,22.57
2017-09-19T09:17:30.541Z,22.54
2017-09-19T09:18:39.559Z,22.55
2017-09-19T09:19:48.573Z,22.55
2017-09-19T09:20:58.228Z,22.63
2017-09-19T09:22:07.245Z,22.62
2017-09-19T09:23:16.262Z,22.54
2017-09-19T09:24:25.595Z,22.63
2017-09-19T09:25:34.608Z,22.6
2017-09-19T09:26:43.943Z,22.62
2017-09-19T09:27:52.961Z,22.62
2017-09-19T09:29:01.985Z,22.66
2017-09-19T09:30:10.678Z,22.57
2017-09-19T09:31:19.695Z,22.66
2017-09-19T09:32:29.348Z,22.6
2017-09-19T09:33:38.046Z,22.69
2017-09-19T09:34:47.381Z,22.6
2017-09-19T09:35:57.038Z,22.66
2017-09-19T09:37:06.692Z,22.62
2017-09-19T09:38:15.707Z,22.63
2017-09-19T09:39:24.720Z,22.63
2017-09-19T09:40:34.373Z,22.63
2017-09-19T09:41:43.389Z,22.59
2017-09-19T09:42:52.084Z,22.53
2017-09-19T09:44:01.740Z,22.54
2017-09-19T09:45:10.760Z,22.53
2017-09-19T09:46:20.418Z,22.54
2017-09-19T09:47:29.757Z,22.47
2017-09-19T09:48:39.411Z,22.5
2017-09-19T09:49:48.745Z,22.57
2017-09-19T09:50:58.082Z,22.55
2017-09-19T09:52:07.419Z,22.57
2017-09-19T09:53:16.118Z,22.68
2017-09-19T09:54:25.133Z,22.7
2017-09-19T09:55:34.146Z,22.7
2017-09-19T09:56:42.852Z,22.85
2017-09-19T09:57:51.548Z,22.84
2017-09-19T09:59:00.562Z,23
2017-09-19T10:00:09.893Z,23.06
2017-09-19T10:01:18.910Z,23.15
2017-09-19T10:02:28.566Z,23.25
2017-09-19T10:03:37.579Z,23.27
2017-09-19T10:04:46.599Z,23.31
2017-09-19T10:05:55.944Z,23.44
2017-09-19T10:07:05.600Z,23.61
2017-09-19T10:08:14.937Z,23.65
2017-09-19T10:09:24.275Z,24.01
2017-09-19T10:10:33.289Z,24.3
2017-09-19T10:11:42.626Z,24.45
2017-09-19T10:12:51.975Z,24.4
2017-09-19T10:14:00.989Z,24.33
2017-09-19T10:15:10.648Z,24.21
2017-09-19T10:16:19.663Z,24.18
2017-09-19T10:17:28.680Z,24.03
2017-09-19T10:18:37.379Z,23.96
2017-09-19T10:19:47.043Z,23.77
2017-09-19T10:20:56.057Z,23.84
2017-09-19T10:22:05.079Z,23.73
2017-09-19T10:23:14.097Z,23.65
2017-09-19T10:24:23.114Z,23.65
2017-09-19T10:25:32.130Z,23.56
2017-09-19T10:26:41.465Z,23.48
2017-09-19T10:27:50.161Z,23.5
2017-09-19T10:28:59.820Z,23.41
2017-09-19T10:30:08.835Z,23.4
2017-09-19T10:31:18.171Z,23.36
2017-09-19T10:32:27.506Z,23.32
2017-09-19T10:33:36.849Z,23.24
2017-09-19T10:34:46.191Z,23.18
2017-09-19T10:35:54.887Z,23.15
2017-09-19T10:37:03.585Z,23.15
2017-09-19T10:38:12.931Z,23
2017-09-19T10:39:21.624Z,22.99
2017-09-19T10:40:30.962Z,23
2017-09-19T10:41:39.981Z,23.03
2017-09-19T10:42:48.997Z,22.96
2017-09-19T10:43:57.692Z,22.93
2017-09-19T10:45:07.037Z,23
2017-09-19T10:46:16.701Z,22.94
2017-09-19T10:47:26.040Z,22.9
2017-09-19T10:48:35.374Z,22.91
2017-09-19T10:49:44.391Z,22.91
2017-09-19T10:50:53.085Z,22.83
2017-09-19T10:52:01.780Z,22.87
2017-09-19T10:53:11.118Z,22.78
2017-09-19T10:54:20.774Z,22.76
2017-09-19T10:55:29.786Z,22.8
2017-09-19T10:56:39.446Z,22.81
2017-09-19T10:57:48.149Z,22.75
2017-09-19T10:58:57.491Z,22.8
2017-09-19T11:00:06.198Z,22.8
2017-09-19T11:01:15.214Z,22.75
2017-09-19T11:02:23.914Z,22.76
2017-09-19T11:03:32.929Z,22.76
2017-09-19T11:04:41.950Z,22.8
2017-09-19T11:05:51.606Z,22.83
2017-09-19T11:07:00.627Z,22.76
2017-09-19T11:08:09.321Z,22.8
2017-09-19T11:09:18.335Z,22.83
2017-09-19T11:10:27.358Z,22.78
2017-09-19T11:11:36.692Z,22.8
2017-09-19T11:12:45.707Z,22.76
2017-09-19T11:13:55.047Z,22.75
2017-09-19T11:15:04.063Z,22.76
2017-09-19T11:16:12.759Z,22.83
2017-09-19T11:17:21.454Z,22.78
2017-09-19T11:18:30.470Z,22.8
2017-09-19T11:19:39.805Z,22.8
2017-09-19T11:20:49.149Z,22.85
2017-09-19T11:21:58.168Z,22.91
2017-09-19T11:23:07.505Z,22.96
2017-09-19T11:24:16.197Z,22.96
2017-09-19T11:25:25.535Z,22.99
2017-09-19T11:26:34.234Z,22.98
2017-09-19T11:27:43.891Z,23.13
2017-09-19T11:28:53.225Z,23.28
2017-09-19T11:30:02.241Z,23.65
2017-09-19T11:31:11.576Z,23.98
2017-09-19T11:32:20.590Z,24.35
2017-09-19T11:33:29.927Z,24.61
2017-09-19T11:34:38.628Z,24.73
2017-09-19T11:35:48.284Z,25.1
2017-09-19T11:36:57.618Z,25.59
2017-09-19T11:38:06.313Z,26.16
2017-09-19T11:39:15.013Z,26.58
2017-09-19T11:40:24.672Z,26.9
2017-09-19T11:41:33.688Z,27.03
2017-09-19T11:42:42.703Z,26.99
2017-09-19T11:43:52.039Z,26.97
2017-09-19T11:45:01.380Z,26.85
2017-09-19T11:46:10.078Z,26.84
2017-09-19T11:47:19.416Z,26.7
2017-09-19T11:48:28.435Z,26.45
2017-09-19T11:49:37.134Z,26.31
2017-09-19T11:50:46.796Z,26.03
2017-09-19T11:51:56.132Z,25.91
2017-09-19T11:53:05.466Z,25.83
2017-09-19T11:54:14.484Z,25.87
2017-09-19T11:55:23.817Z,25.83
2017-09-19T11:56:32.834Z,25.98
2017-09-19T11:57:42.171Z,25.99
2017-09-19T11:58:51.502Z,25.85
2017-09-19T12:00:00.837Z,25.77
2017-09-19T12:01:09.857Z,25.66
2017-09-19T12:02:18.870Z,25.48
2017-09-19T12:03:27.885Z,25.29
2017-09-19T12:04:37.540Z,25.22
2017-09-19T12:05:46.552Z,24.96
2017-09-19T12:06:55.887Z,24.81
2017-09-19T12:08:04.915Z,24.6
2017-09-19T12:09:13.611Z,24.61
2017-09-19T12:10:22.625Z,24.42
2017-09-19T12:11:31.680Z,24.35
2017-09-19T12:12:41.657Z,24.26
2017-09-19T12:13:50.355Z,24.23
2017-09-19T12:14:59.052Z,24.16
2017-09-19T12:16:07.749Z,24.14
2017-09-19T12:17:17.082Z,24.02
2017-09-19T12:18:25.779Z,23.96
2017-09-19T12:19:34.474Z,23.92
2017-09-19T12:20:43.816Z,23.92
2017-09-19T12:21:52.512Z,23.77
2017-09-19T12:23:01.847Z,23.78
2017-09-19T12:24:11.186Z,23.73
2017-09-19T12:25:20.200Z,23.71
2017-09-19T12:26:29.221Z,23.76
2017-09-19T12:27:38.881Z,23.68
2017-09-19T12:28:47.582Z,23.68
2017-09-19T12:29:56.277Z,23.62
2017-09-19T12:31:04.973Z,23.68
2017-09-19T12:32:13.990Z,23.59
2017-09-19T12:33:23.323Z,23.59
2017-09-19T12:34:32.691Z,23.48
2017-09-19T12:35:41.367Z,23.54
2017-09-19T12:36:50.702Z,23.48
2017-09-19T12:37:59.719Z,23.5
2017-09-19T12:39:08.416Z,23.47
2017-09-19T12:40:18.071Z,23.47
2017-09-19T12:41:27.404Z,23.41
2017-09-19T12:42:36.744Z,23.39
2017-09-19T12:43:45.442Z,23.43
2017-09-19T12:44:54.137Z,23.43
2017-09-19T12:46:03.151Z,23.41
2017-09-19T12:47:11.850Z,23.4
2017-09-19T12:48:20.868Z,23.36
2017-09-19T12:49:29.885Z,23.37
2017-09-19T12:50:38.898Z,23.28
2017-09-19T12:51:47.919Z,23.39
2017-09-19T12:52:56.610Z,23.37
2017-09-19T12:54:05.631Z,23.43
2017-09-19T12:55:14.964Z,23.46
2017-09-19T12:56:23.661Z,23.5
2017-09-19T12:57:32.679Z,23.54
2017-09-19T12:58:41.374Z,23.59
2017-09-19T12:59:50.393Z,23.62
2017-09-19T13:00:59.724Z,23.69
2017-09-19T13:02:08.741Z,23.8
2017-09-19T13:03:17.437Z,23.83
2017-09-19T13:04:26.450Z,23.83
2017-09-19T13:05:35.818Z,23.78
2017-09-19T13:06:45.154Z,23.78
2017-09-19T13:07:54.175Z,23.76
2017-09-19T13:09:03.834Z,23.78
2017-09-19T13:10:12.849Z,23.8
2017-09-19T13:11:21.861Z,23.73
2017-09-19T13:12:31.517Z,23.76
2017-09-19T13:13:40.871Z,23.73
2017-09-19T13:14:49.887Z,23.83
2017-09-19T13:15:59.225Z,23.71
2017-09-19T13:17:08.247Z,23.77
2017-09-19T13:18:17.264Z,23.74
2017-09-19T13:19:26.280Z,23.74
2017-09-19T13:20:35.295Z,23.78
2017-09-19T13:21:44.313Z,23.77
2017-09-19T13:22:54.287Z,23.8
2017-09-19T13:24:03.324Z,23.76
2017-09-19T13:25:12.666Z,23.77
2017-09-19T13:26:22.007Z,23.68
2017-09-19T13:27:31.343Z,23.86
2017-09-19T13:28:40.364Z,23.76
2017-09-19T13:29:50.018Z,23.71
2017-09-19T13:30:58.714Z,23.76
2017-09-19T13:32:08.049Z,23.69
2017-09-19T13:33:16.748Z,23.69
2017-09-19T13:34:25.444Z,23.68
2017-09-19T13:35:34.786Z,23.56
2017-09-19T13:36:44.772Z,23.59
2017-09-19T13:37:54.106Z,23.65
2017-09-19T13:39:03.124Z,23.58
2017-09-19T13:40:12.461Z,23.5
2017-09-19T13:41:21.805Z,23.51
2017-09-19T13:42:31.144Z,23.48
2017-09-19T13:43:39.838Z,23.44
2017-09-19T13:44:49.174Z,23.44
2017-09-19T13:45:57.870Z,23.41
2017-09-19T13:47:06.898Z,23.28
2017-09-19T13:48:15.911Z,23.32
2017-09-19T13:49:24.929Z,23.27
2017-09-19T13:50:34.268Z,23.34
2017-09-19T13:51:43.610Z,23.31
2017-09-19T13:52:52.307Z,23.23
2017-09-19T13:54:01.001Z,23.32
2017-09-19T13:55:10.352Z,23.23
2017-09-19T13:56:19.687Z,23.23
2017-09-19T13:57:29.351Z,23.24
2017-09-19T13:58:38.689Z,23.23
2017-09-19T13:59:47.726Z,23.4
2017-09-19T14:00:56.743Z,23.27
2017-09-19T14:02:05.759Z,23.31
2017-09-19T14:03:15.096Z,23.28
2017-09-19T14:04:24.749Z,23.28
2017-09-19T14:05:34.085Z,23.36
2017-09-19T14:06:43.740Z,23.31
2017-09-19T14:07:52.436Z,23.32
2017-09-19T14:09:01.136Z,23.37
2017-09-19T14:10:10.161Z,23.32
2017-09-19T14:11:18.858Z,23.25
2017-09-19T14:12:28.195Z,23.34
2017-09-19T14:13:37.212Z,23.32
2017-09-19T14:14:45.910Z,23.32
2017-09-19T14:15:55.243Z,23.27
2017-09-19T14:17:04.260Z,23.39
2017-09-19T14:18:13.605Z,23.37
2017-09-19T14:19:22.302Z,23.37
2017-09-19T14:20:31.960Z,23.39
2017-09-19T14:21:41.298Z,23.43
2017-09-19T14:22:49.992Z,23.44
2017-09-19T14:23:59.012Z,23.47
2017-09-19T14:25:08.031Z,23.47
2017-09-19T14:26:17.369Z,23.34
2017-09-19T14:27:26.706Z,23.39
2017-09-19T14:28:35.727Z,23.4
2017-09-19T14:29:45.062Z,23.32
2017-09-19T14:30:54.084Z,23.39
2017-09-19T14:32:03.425Z,23.37
2017-09-19T14:33:12.439Z,23.41
2017-09-19T14:34:21.456Z,23.41
2017-09-19T14:35:30.791Z,23.37
2017-09-19T14:36:39.810Z,23.39
2017-09-19T14:37:48.835Z,23.37
2017-09-19T14:38:57.851Z,23.34
2017-09-19T14:40:06.546Z,23.43
2017-09-19T14:41:15.565Z,23.37
2017-09-19T14:42:24.899Z,23.4
2017-09-19T14:43:33.602Z,23.36
2017-09-19T14:44:42.615Z,23.37
2017-09-19T14:45:51.632Z,23.5
2017-09-19T14:47:00.965Z,23.39
2017-09-19T14:48:09.982Z,23.46
2017-09-19T14:49:18.999Z,23.41
2017-09-19T14:50:28.654Z,23.39
2017-09-19T14:51:37.353Z,23.55
2017-09-19T14:52:46.685Z,23.48
2017-09-19T14:53:55.383Z,23.56
2017-09-19T14:55:04.720Z,23.5